Time;durP1;ratioP1;P1;durP2;ratioP2;P2;SDS_P1;SDS_P2;PMS_P1;PMS_P2;Temp;Humidity;BMP_temperature;BMP_pressure;BME280_temperature;BME280_humidity;BME280_pressure;Samples;Min_cycle;Max_cycle;Signal;HPM_P1;HPM_P2
2022/10/24 00:01:40;;;;;;;6.07;3.30;;;14.50;1.00;;;;;;5026033;28;20210;-46
2022/10/24 00:04:06;;;;;;;5.87;3.30;;;14.50;1.00;;;;;;5031107;28;20663;-46
2022/10/24 00:06:32;;;;;;;7.07;2.90;;;14.50;1.00;;;;;;5029965;28;20210;-46
2022/10/24 00:08:58;;;;;;;9.70;3.80;;;14.40;1.00;;;;;;5036429;28;20441;-46
2022/10/24 00:11:26;;;;;;;4.77;3.23;;;14.40;1.00;;;;;;5036473;28;20788;-46
2022/10/24 00:13:54;;;;;;;7.20;3.50;;;14.40;1.00;;;;;;5036282;28;20194;-46
2022/10/24 00:16:20;;;;;;;10.80;3.77;;;14.40;1.00;;;;;;5034333;28;20449;-46
2022/10/24 00:18:46;;;;;;;7.13;3.70;;;14.40;1.00;;;;;;5037831;28;20414;-46
2022/10/24 00:21:13;;;;;;;5.07;3.27;;;14.60;1.00;;;;;;5036680;28;20479;-46
2022/10/24 00:23:38;;;;;;;4.70;3.87;;;14.50;1.00;;;;;;5037357;28;20464;-45
2022/10/24 00:26:05;;;;;;;7.47;3.57;;;14.50;1.00;;;;;;5037282;28;20500;-46
2022/10/24 00:28:34;;;;;;;6.60;3.20;;;14.50;1.00;;;;;;5035733;28;20503;-45
2022/10/24 00:31:00;;;;;;;4.20;3.50;;;14.50;1.00;;;;;;5037432;28;20441;-45
2022/10/24 00:33:26;;;;;;;7.90;3.80;;;14.50;1.00;;;;;;5036062;28;20815;-46
2022/10/24 00:35:52;;;;;;;12.30;3.87;;;14.40;1.00;;;;;;5036578;28;20448;-46
2022/10/24 00:38:18;;;;;;;8.07;3.93;;;14.40;1.00;;;;;;5036310;28;20449;-46
2022/10/24 00:40:44;;;;;;;4.10;3.70;;;14.40;1.00;;;;;;5036861;28;20521;-45
2022/10/24 00:43:22;;;;;;;7.07;4.03;;;14.40;1.00;;;;;;5037036;28;20202;-45
2022/10/24 00:45:56;;;;;;;3.63;3.17;;;14.50;1.00;;;;;;5036172;28;20563;-46
2022/10/24 00:48:32;;;;;;;8.77;3.70;;;14.30;1.00;;;;;;5037224;28;20915;-47
2022/10/24 00:51:03;;;;;;;6.73;3.87;;;14.30;1.00;;;;;;5036770;28;20915;-46
2022/10/24 00:53:32;;;;;;;8.80;3.50;;;14.30;1.00;;;;;;5067749;28;20973;-45
2022/10/24 00:56:01;;;;;;;8.43;3.60;;;14.30;1.00;;;;;;5036350;28;20441;-45
2022/10/24 00:58:29;;;;;;;3.50;3.20;;;14.20;1.00;;;;;;5032012;28;20457;-46
2022/10/24 01:00:56;;;;;;;11.03;4.00;;;14.20;1.00;;;;;;5036500;28;20445;-46
2022/10/24 01:03:21;;;;;;;5.80;3.97;;;14.20;1.00;;;;;;5035668;28;20528;-47
2022/10/24 01:06:15;;;;;;;9.33;4.10;;;14.10;1.00;;;;;;5035447;28;20918;-55
2022/10/24 01:09:08;;;;;;;5.00;3.57;;;14.00;1.00;;;;;;5036914;28;20163;-55
2022/10/24 01:12:08;;;;;;;5.80;3.40;;;14.00;1.00;;;;;;5036242;28;20449;-56
2022/10/24 01:14:55;;;;;;;7.13;3.70;;;14.00;1.00;;;;;;5025571;28;20492;-55
2022/10/24 01:17:26;;;;;;;4.70;3.50;;;13.90;1.00;;;;;;5036466;28;20460;-56
2022/10/24 01:20:16;;;;;;;6.60;3.77;;;13.80;1.00;;;;;;5032122;28;20476;-55
2022/10/24 01:23:13;;;;;;;4.03;3.60;;;13.80;1.00;;;;;;5032144;28;21002;-56
2022/10/24 01:25:54;;;;;;;7.67;4.13;;;13.70;1.00;;;;;;5025818;28;20468;-56
2022/10/24 01:28:39;;;;;;;9.90;4.07;;;13.70;1.00;;;;;;5031997;28;20564;-57
2022/10/24 01:31:14;;;;;;;6.50;3.87;;;13.70;1.00;;;;;;5065567;28;20842;-56
2022/10/24 01:33:48;;;;;;;7.33;3.70;;;13.70;1.00;;;;;;5033187;28;20433;-57
2022/10/24 01:36:22;;;;;;;6.50;4.20;;;13.60;1.00;;;;;;5032631;28;20496;-57
2022/10/24 01:39:19;;;;;;;7.20;4.00;;;13.50;1.00;;;;;;5032792;28;20446;-57
2022/10/24 01:41:46;;;;;;;6.90;4.07;;;13.50;1.00;;;;;;5044853;28;20446;-58
2022/10/24 01:44:36;;;;;;;6.57;4.50;;;13.50;1.00;;;;;;5015576;28;20925;-57
2022/10/24 01:47:07;;;;;;;6.93;4.27;;;13.40;1.00;;;;;;5012170;28;20566;-57
2022/10/24 01:49:36;;;;;;;6.30;3.83;;;13.40;1.00;;;;;;5012815;28;20446;-55
2022/10/24 01:52:08;;;;;;;5.37;3.83;;;13.30;1.00;;;;;;5013656;28;20419;-58
2022/10/24 01:54:36;;;;;;;8.33;5.00;;;13.30;1.00;;;;;;5010039;28;20462;-59
2022/10/24 01:57:02;;;;;;;4.30;3.57;;;13.30;1.00;;;;;;5012846;28;20477;-58
2022/10/24 01:59:27;;;;;;;10.23;4.07;;;13.20;1.00;;;;;;5012938;28;20541;-58
2022/10/24 02:01:57;;;;;;;7.53;4.60;;;13.20;1.00;;;;;;5013262;28;20419;-59
2022/10/24 02:04:26;;;;;;;6.90;4.10;;;13.20;1.00;;;;;;5011460;28;20199;-60
2022/10/24 02:06:54;;;;;;;5.80;4.23;;;13.20;1.00;;;;;;5013232;28;20485;-59
2022/10/24 02:09:21;;;;;;;6.50;4.50;;;13.20;1.00;;;;;;5012479;28;20434;-60
2022/10/24 02:11:48;;;;;;;8.50;4.50;;;13.20;1.00;;;;;;5011833;28;20492;-58
2022/10/24 02:14:27;;;;;;;4.17;3.77;;;13.10;1.00;;;;;;5009603;28;20458;-59
2022/10/24 02:16:53;;;;;;;5.53;4.00;;;13.10;1.00;;;;;;5012984;28;20422;-59
2022/10/24 02:19:19;;;;;;;8.40;4.37;;;13.10;1.00;;;;;;5011191;28;21003;-59
2022/10/24 02:22:00;;;;;;;4.70;4.00;;;13.00;1.00;;;;;;5012927;28;20429;-58
2022/10/24 02:24:37;;;;;;;5.60;4.80;;;13.00;1.00;;;;;;4998973;28;21087;-59
2022/10/24 02:27:08;;;;;;;10.13;4.33;;;13.00;1.00;;;;;;5012711;28;20453;-59
2022/10/24 02:29:43;;;;;;;11.30;3.90;;;12.90;1.00;;;;;;5012078;28;20450;-59
2022/10/24 02:32:14;;;;;;;6.50;4.27;;;12.90;1.00;;;;;;5009706;28;20448;-60
2022/10/24 02:34:41;;;;;;;11.33;4.80;;;12.90;1.00;;;;;;5010611;28;20435;-60
2022/10/24 02:37:10;;;;;;;9.60;4.63;;;12.80;1.00;;;;;;5012675;28;20438;-59
2022/10/24 02:39:38;;;;;;;8.17;5.00;;;12.80;1.00;;;;;;5011804;28;20446;-60
2022/10/24 02:42:05;;;;;;;12.27;4.53;;;12.70;1.00;;;;;;5010778;28;20430;-60
2022/10/24 02:44:31;;;;;;;8.73;4.60;;;12.70;1.00;;;;;;5012370;28;20960;-60
2022/10/24 02:47:00;;;;;;;4.70;4.20;;;12.80;1.00;;;;;;5012375;28;20512;-60
2022/10/24 02:49:26;;;;;;;6.23;4.67;;;12.80;1.00;;;;;;5011509;28;20226;-61
2022/10/24 02:51:52;;;;;;;8.00;4.50;;;12.80;1.00;;;;;;5011408;28;20446;-60
2022/10/24 02:54:18;;;;;;;9.50;4.00;;;12.80;1.60;;;;;;5012433;28;20223;-61
2022/10/24 02:56:48;;;;;;;8.57;4.60;;;12.80;8.80;;;;;;5011576;28;20490;-60
2022/10/24 02:59:14;;;;;;;5.30;4.27;;;12.90;16.30;;;;;;5012357;28;20187;-60
2022/10/24 03:01:40;;;;;;;15.47;4.90;;;13.00;19.70;;;;;;5010735;28;20817;-60
2022/10/24 03:04:06;;;;;;;7.63;4.87;;;13.00;21.60;;;;;;5012795;28;20763;-59
2022/10/24 03:06:31;;;;;;;7.20;4.90;;;13.00;21.00;;;;;;5010897;28;20250;-58
2022/10/24 03:08:57;;;;;;;14.00;4.60;;;13.00;16.90;;;;;;5010435;28;20470;-60
2022/10/24 03:11:23;;;;;;;4.93;3.60;;;12.90;15.20;;;;;;5012093;28;20195;-46
2022/10/24 03:13:48;;;;;;;9.10;4.03;;;12.90;14.50;;;;;;5010288;28;20199;-46
2022/10/24 03:16:14;;;;;;;6.37;4.10;;;12.90;14.40;;;;;;5011960;28;20199;-46
2022/10/24 03:18:40;;;;;;;6.93;3.97;;;12.90;12.80;;;;;;5012068;28;20184;-46
2022/10/24 03:21:05;;;;;;;11.30;4.53;;;12.90;13.20;;;;;;5009069;28;20202;-46
2022/10/24 03:23:31;;;;;;;5.53;4.10;;;12.90;13.60;;;;;;5002219;28;20662;-46
2022/10/24 03:25:58;;;;;;;6.83;4.20;;;12.80;12.60;;;;;;5008999;28;20649;-46
2022/10/24 03:28:24;;;;;;;5.70;4.60;;;12.80;13.40;;;;;;5011141;28;20192;-46
2022/10/24 03:30:51;;;;;;;7.17;4.50;;;12.80;15.10;;;;;;5011982;28;20762;-46
2022/10/24 03:33:16;;;;;;;9.70;5.40;;;12.70;17.50;;;;;;5010128;28;20805;-46
2022/10/24 03:35:43;;;;;;;5.27;4.77;;;12.70;22.60;;;;;;5011539;28;20422;-46
2022/10/24 03:38:08;;;;;;;8.03;4.37;;;12.70;24.20;;;;;;5001061;28;20638;-46
2022/10/24 03:40:34;;;;;;;7.27;4.53;;;12.70;24.30;;;;;;5005540;28;20454;-46
2022/10/24 03:43:00;;;;;;;12.30;4.50;;;12.60;23.50;;;;;;5006902;28;20202;-46
2022/10/24 03:45:26;;;;;;;10.80;4.83;;;12.60;24.20;;;;;;5010493;28;20482;-46
2022/10/24 03:47:51;;;;;;;11.43;4.63;;;12.50;25.50;;;;;;5011019;28;20202;-46
2022/10/24 03:50:17;;;;;;;5.53;4.73;;;12.50;27.80;;;;;;5011947;28;20190;-46
2022/10/24 03:52:43;;;;;;;8.80;4.53;;;12.50;31.10;;;;;;5011249;28;20184;-46
2022/10/24 03:55:09;;;;;;;6.20;4.40;;;12.50;37.20;;;;;;5009056;28;20547;-46
2022/10/24 03:57:35;;;;;;;12.10;5.20;;;12.50;42.40;;;;;;5009987;28;20188;-46
2022/10/24 04:00:01;;;;;;;7.53;5.03;;;12.50;44.10;;;;;;5009518;28;20439;-46
2022/10/24 04:02:26;;;;;;;8.90;4.97;;;12.50;47.50;;;;;;5011139;28;20190;-46
2022/10/24 04:04:52;;;;;;;7.23;4.50;;;12.50;51.50;;;;;;5010967;28;20266;-46
2022/10/24 04:07:18;;;;;;;5.00;4.40;;;12.50;54.40;;;;;;5009757;28;20219;-46
2022/10/24 04:09:43;;;;;;;11.50;5.03;;;12.50;59.90;;;;;;5009301;28;20265;-47
2022/10/24 04:12:09;;;;;;;5.83;4.83;;;12.50;64.30;;;;;;5010834;28;20176;-46
2022/10/24 04:14:34;;;;;;;9.57;5.10;;;12.50;67.90;;;;;;5011288;28;20287;-46
2022/10/24 04:17:03;;;;;;;8.40;5.13;;;12.50;67.30;;;;;;5010357;28;20247;-46
2022/10/24 04:19:29;;;;;;;10.67;5.57;;;12.50;69.60;;;;;;4998411;28;20195;-46
2022/10/24 04:21:54;;;;;;;12.33;5.70;;;12.50;69.30;;;;;;5009954;28;20545;-46
2022/10/24 04:24:20;;;;;;;9.10;5.30;;;12.50;69.90;;;;;;5011134;28;20187;-46
2022/10/24 04:26:46;;;;;;;11.53;4.97;;;12.50;68.40;;;;;;5009467;28;20285;-46
2022/10/24 04:29:11;;;;;;;9.77;5.00;;;12.40;68.20;;;;;;4996887;28;20283;-46
2022/10/24 04:31:37;;;;;;;6.47;4.80;;;12.40;71.40;;;;;;5011233;28;20195;-46
2022/10/24 04:34:04;;;;;;;10.93;4.77;;;12.40;68.40;;;;;;5010337;28;20641;-46
2022/10/24 04:36:30;;;;;;;14.60;5.37;;;12.40;67.10;;;;;;5010902;28;20199;-46
2022/10/24 04:38:55;;;;;;;13.33;5.17;;;12.30;67.20;;;;;;5009850;28;20787;-46
2022/10/24 04:41:21;;;;;;;10.07;5.50;;;12.30;67.20;;;;;;5010097;28;20191;-46
2022/10/24 04:43:46;;;;;;;9.30;5.47;;;12.30;72.60;;;;;;5006954;28;20227;-46
2022/10/24 04:46:12;;;;;;;7.83;5.17;;;12.30;78.50;;;;;;5011081;28;20214;-46
2022/10/24 04:48:38;;;;;;;13.60;6.00;;;12.30;83.10;;;;;;5004122;28;20650;-46
2022/10/24 04:51:03;;;;;;;8.77;5.83;;;12.40;87.50;;;;;;5010703;28;20196;-46
2022/10/24 04:53:29;;;;;;;7.63;4.87;;;12.40;93.40;;;;;;5008774;28;20196;-47
2022/10/24 04:55:55;;;;;;;9.77;5.80;;;12.40;97.00;;;;;;5014585;28;20602;-50
2022/10/24 04:58:21;;;;;;;10.33;5.33;;;12.50;99.90;;;;;;5013276;28;20196;-46
2022/10/24 05:00:48;;;;;;;9.33;5.80;;;12.60;99.90;;;;;;5014468;28;20257;-46
2022/10/24 05:03:15;;;;;;;13.43;5.73;;;12.70;99.90;;;;;;5012384;28;20721;-62
2022/10/24 05:05:40;;;;;;;10.97;5.60;;;12.80;99.90;;;;;;5011528;28;20474;-60
2022/10/24 05:08:06;;;;;;;10.63;5.23;;;12.80;99.90;;;;;;5013642;28;20516;-60
2022/10/24 05:10:31;;;;;;;8.80;5.03;;;13.00;99.90;;;;;;5014322;28;20244;-59
2022/10/24 05:12:57;;;;;;;10.27;5.80;;;13.10;99.90;;;;;;5014374;28;20582;-57
2022/10/24 05:15:23;;;;;;;12.07;5.70;;;13.20;99.90;;;;;;5011659;28;20250;-57
2022/10/24 05:17:48;;;;;;;8.73;5.37;;;13.30;99.50;;;;;;5014207;28;20267;-56
2022/10/24 05:20:14;;;;;;;10.80;4.70;;;13.20;75.50;;;;;;5014258;28;20190;-56
2022/10/24 05:22:40;;;;;;;6.97;4.70;;;13.30;53.80;;;;;;5016917;28;20222;-55
2022/10/24 05:25:06;;;;;;;13.83;5.27;;;13.30;32.80;;;;;;5013207;28;20261;-55
2022/10/24 05:27:31;;;;;;;7.40;5.20;;;13.30;17.70;;;;;;5012990;28;20655;-55
2022/10/24 05:29:57;;;;;;;9.90;4.37;;;13.30;1.70;;;;;;5005236;28;20453;-54
2022/10/24 05:32:24;;;;;;;6.93;4.87;;;13.30;1.00;;;;;;5000923;28;20863;-53
2022/10/24 05:34:50;;;;;;;10.97;4.67;;;13.40;1.00;;;;;;5009919;28;20213;-54
2022/10/24 05:37:16;;;;;;;11.73;4.20;;;13.40;1.00;;;;;;5013087;28;20446;-53
2022/10/24 05:39:42;;;;;;;7.80;4.40;;;13.30;1.00;;;;;;5013224;28;20520;-53
2022/10/24 05:42:08;;;;;;;6.53;3.97;;;13.40;1.00;;;;;;5012884;28;20447;-52
2022/10/24 05:44:33;;;;;;;6.80;4.53;;;13.40;1.00;;;;;;5015725;28;20333;-52
2022/10/24 05:46:59;;;;;;;16.97;4.93;;;13.40;1.00;;;;;;5002803;28;20555;-52
2022/10/24 05:49:25;;;;;;;7.87;4.50;;;13.50;1.00;;;;;;5013873;28;20665;-52
2022/10/24 05:51:50;;;;;;;8.80;4.50;;;13.50;1.00;;;;;;5013674;28;20195;-51
2022/10/24 05:54:16;;;;;;;9.13;4.17;;;13.50;1.00;;;;;;5012847;28;20192;-50
2022/10/24 05:56:41;;;;;;;12.13;4.00;;;13.60;1.00;;;;;;5008368;28;20206;-51
2022/10/24 05:59:08;;;;;;;9.00;4.97;;;13.60;1.00;;;;;;5001887;28;20663;-51
2022/10/24 06:01:34;;;;;;;10.07;4.13;;;13.60;1.00;;;;;;5012586;28;20192;-51
2022/10/24 06:03:59;;;;;;;15.57;4.17;;;13.50;1.00;;;;;;5013327;28;20947;-51
2022/10/24 06:06:25;;;;;;;11.23;4.00;;;13.50;1.00;;;;;;5012403;28;20498;-51
2022/10/24 06:08:51;;;;;;;13.07;4.50;;;13.50;1.00;;;;;;5013103;28;20183;-50
2022/10/24 06:11:18;;;;;;;9.30;4.33;;;13.50;1.00;;;;;;5011259;28;20194;-50
2022/10/24 06:13:43;;;;;;;6.27;3.90;;;13.60;1.00;;;;;;5013346;28;20410;-50
2022/10/24 06:16:10;;;;;;;11.20;3.60;;;13.70;1.00;;;;;;5011415;28;20454;-51
2022/10/24 06:18:37;;;;;;;6.70;3.53;;;13.80;1.00;;;;;;5012521;28;20230;-51
2022/10/24 06:21:06;;;;;;;6.83;3.70;;;13.80;1.00;;;;;;5010124;28;20477;-50
2022/10/24 06:23:31;;;;;;;9.07;4.67;;;13.80;99.90;;;;;;5015551;28;21174;-50
2022/10/24 06:25:59;;;;;;;12.67;4.70;;;13.90;99.90;;;;;;5008247;28;20481;-49
2022/10/24 06:28:26;;;;;;;11.47;4.00;;;13.90;99.90;;;;;;5012368;28;20191;-46
2022/10/24 06:30:53;;;;;;;9.83;4.07;;;14.00;99.90;;;;;;5012341;28;20493;-45
2022/10/24 06:33:19;;;;;;;10.13;3.93;;;14.00;99.90;;;;;;5016455;28;20449;-45
2022/10/24 06:35:45;;;;;;;9.90;4.40;;;14.00;99.90;;;;;;5016143;28;21186;-50
2022/10/24 06:38:12;;;;;;;10.03;4.27;;;14.00;99.90;;;;;;5008561;28;20571;-50
2022/10/24 06:40:39;;;;;;;8.47;4.50;;;14.00;99.90;;;;;;5011088;28;20453;-50
2022/10/24 06:43:05;;;;;;;14.80;5.23;;;13.90;99.90;;;;;;5008076;28;20490;-51
2022/10/24 06:45:31;;;;;;;13.60;4.63;;;14.00;99.90;;;;;;5011892;28;20521;-49
2022/10/24 06:47:56;;;;;;;11.33;4.53;;;14.10;99.90;;;;;;5006735;28;20446;-49
2022/10/24 06:50:22;;;;;;;9.80;4.37;;;14.10;99.90;;;;;;5011597;28;20208;-50
2022/10/24 06:52:48;;;;;;;12.07;4.87;;;14.10;99.90;;;;;;5010178;28;20245;-49
2022/10/24 06:55:14;;;;;;;9.13;4.53;;;14.10;99.90;;;;;;5010503;28;20443;-50
2022/10/24 06:57:39;;;;;;;8.57;4.43;;;14.10;99.90;;;;;;5004445;28;20196;-51
2022/10/24 07:00:07;;;;;;;5.57;4.20;;;14.00;99.90;;;;;;5008827;28;20274;-52
2022/10/24 07:02:33;;;;;;;8.00;4.87;;;14.00;99.90;;;;;;5012217;28;20609;-49
2022/10/24 07:04:59;;;;;;;6.40;3.90;;;14.10;99.90;;;;;;5042166;28;20470;-49
2022/10/24 07:07:24;;;;;;;12.10;4.07;;;14.20;99.90;;;;;;5011702;28;20219;-49
2022/10/24 07:09:56;;;;;;;7.77;4.60;;;14.20;99.90;;;;;;5004988;28;20188;-48
2022/10/24 07:12:23;;;;;;;9.27;4.53;;;14.30;99.90;;;;;;5011192;28;20204;-49
2022/10/24 07:14:49;;;;;;;9.80;3.80;;;14.30;99.90;;;;;;5011048;28;20489;-46
2022/10/24 07:17:17;;;;;;;16.00;4.60;;;14.40;99.90;;;;;;5034237;28;20439;-49
2022/10/24 07:19:43;;;;;;;9.10;4.00;;;14.40;99.90;;;;;;4998968;28;20853;-49
2022/10/24 07:22:08;;;;;;;14.60;4.30;;;14.40;99.90;;;;;;5000418;28;20439;-49
2022/10/24 07:24:34;;;;;;;11.53;4.20;;;14.50;99.90;;;;;;4999803;28;20287;-49
2022/10/24 07:27:00;;;;;;;13.30;5.40;;;14.50;99.90;;;;;;5002972;28;20601;-49
2022/10/24 07:29:26;;;;;;;9.57;4.30;;;14.50;99.90;;;;;;5002915;28;20450;-49
2022/10/24 07:31:52;;;;;;;11.70;4.67;;;14.50;99.90;;;;;;5000536;28;20448;-48
2022/10/24 07:34:18;;;;;;;9.83;3.80;;;14.60;99.90;;;;;;4999554;28;20276;-49
2022/10/24 07:36:43;;;;;;;8.83;3.90;;;14.70;96.40;;;;;;5001469;28;20329;-49
2022/10/24 07:39:10;;;;;;;4.93;3.70;;;14.70;54.30;;;;;;4999312;28;20224;-49
2022/10/24 07:41:39;;;;;;;7.90;4.37;;;14.70;53.50;;;;;;5001566;28;20282;-49
2022/10/24 07:44:05;;;;;;;9.00;3.47;;;14.70;43.30;;;;;;4999504;28;20542;-49
2022/10/24 07:46:31;;;;;;;9.37;3.57;;;14.80;23.90;;;;;;5001402;28;20855;-48
2022/10/24 07:48:56;;;;;;;12.07;4.20;;;14.90;1.00;;;;;;4998118;28;20438;-48
2022/10/24 07:51:22;;;;;;;9.17;3.63;;;15.20;1.00;;;;;;4997107;28;21196;-48
2022/10/24 07:53:48;;;;;;;9.77;4.07;;;15.70;1.00;;;;;;4997101;28;20720;-48
2022/10/24 07:56:16;;;;;;;8.47;4.13;;;16.40;28.80;;;;;;4996835;28;20274;-46
2022/10/24 07:58:43;;;;;;;10.83;3.90;;;16.70;99.90;;;;;;4996320;28;20441;-47
2022/10/24 08:01:11;;;;;;;7.00;3.33;;;17.00;1.00;;;;;;5006457;28;20476;-47
2022/10/24 08:03:37;;;;;;;9.87;3.43;;;17.30;46.30;;;;;;5011252;28;21221;-47
2022/10/24 08:06:12;;;;;;;12.77;3.13;;;17.10;99.90;;;;;;5011315;28;20465;-44
2022/10/24 08:08:39;;;;;;;9.57;3.93;;;16.80;1.00;;;;;;5008381;28;20187;-45
2022/10/24 08:11:17;;;;;;;5.53;3.50;;;16.70;99.90;;;;;;4999514;28;20446;-45
2022/10/24 08:13:43;;;;;;;40.53;22.00;;;16.90;92.70;;;;;;5005253;28;20557;-46
2022/10/24 08:16:11;;;;;;;18.00;6.47;;;17.00;1.00;;;;;;5010987;28;20442;-45
2022/10/24 08:18:37;;;;;;;19.47;4.23;;;16.90;50.70;;;;;;5011233;28;20520;-45
2022/10/24 08:21:05;;;;;;;17.50;6.50;;;16.80;39.30;;;;;;5011233;28;20440;-48
2022/10/24 08:23:32;;;;;;;13.37;4.33;;;16.70;1.00;;;;;;5009196;28;20472;-48
2022/10/24 08:25:58;;;;;;;9.53;3.90;;;16.60;99.90;;;;;;5009430;28;20562;-48
2022/10/24 08:28:24;;;;;;;9.27;3.30;;;16.50;99.90;;;;;;5012142;28;20493;-47
2022/10/24 08:31:01;;;;;;;8.10;3.50;;;16.40;99.90;;;;;;5015026;28;20611;-48
2022/10/24 08:33:27;;;;;;;8.20;3.47;;;16.30;1.00;;;;;;5015011;28;20403;-48
2022/10/24 08:35:57;;;;;;;11.30;3.87;;;16.30;1.00;;;;;;5015007;28;20477;-48
2022/10/24 08:38:23;;;;;;;9.30;3.60;;;16.30;32.10;;;;;;5014937;28;20407;-48
2022/10/24 08:40:49;;;;;;;10.50;3.93;;;16.30;99.90;;;;;;5014844;28;20418;-46
2022/10/24 08:43:16;;;;;;;9.20;3.37;;;16.30;99.90;;;;;;5010141;28;20211;-45
2022/10/24 08:46:00;;;;;;;5.77;3.77;;;16.30;99.90;;;;;;5014555;28;20231;-45
2022/10/24 08:48:31;;;;;;;7.00;3.90;;;16.40;99.90;;;;;;5017996;28;20430;-45
2022/10/24 08:51:08;;;;;;;9.53;3.07;;;16.40;1.00;;;;;;5014746;28;20835;-45
2022/10/24 08:53:34;;;;;;;6.73;3.43;;;16.50;1.00;;;;;;5014601;28;20410;-45
2022/10/24 08:56:03;;;;;;;8.23;3.07;;;16.60;99.90;;;;;;5007973;28;20435;-45
2022/10/24 08:58:40;;;;;;;16.53;3.13;;;16.70;99.90;;;;;;5009983;28;20967;-45
2022/10/24 09:01:16;;;;;;;6.43;3.27;;;16.80;99.90;;;;;;5011287;28;20446;-44
2022/10/24 09:03:49;;;;;;;8.70;3.50;;;16.90;44.10;;;;;;5010567;28;20441;-45
2022/10/24 09:06:18;;;;;;;6.60;2.43;;;16.90;17.20;;;;;;5017965;28;20557;-48
2022/10/24 09:08:57;;;;;;;8.83;3.30;;;16.90;1.00;;;;;;5006577;28;21370;-46
2022/10/24 09:11:53;;;;;;;7.60;2.87;;;16.90;1.00;;;;;;5004836;28;20529;-47
2022/10/24 09:14:21;;;;;;;8.13;2.60;;;17.00;1.00;;;;;;5012791;28;20497;-51
2022/10/24 09:16:59;;;;;;;12.07;2.60;;;17.00;1.00;;;;;;5014325;28;20476;-47
2022/10/24 09:19:28;;;;;;;7.90;2.47;;;17.20;1.00;;;;;;5014437;28;20915;-47
2022/10/24 09:21:56;;;;;;;6.83;2.67;;;17.30;1.00;;;;;;5015149;28;20939;-47
2022/10/24 09:24:49;;;;;;;6.30;2.73;;;17.40;1.00;;;;;;5014017;28;20414;-47
2022/10/24 09:27:20;;;;;;;5.60;2.43;;;17.50;1.00;;;;;;5011912;28;21045;-47
2022/10/24 09:29:46;;;;;;;6.13;2.50;;;17.60;1.00;;;;;;5012874;28;20453;-46
2022/10/24 09:32:21;;;;;;;6.60;2.80;;;17.70;1.00;;;;;;5012967;28;21145;-47
2022/10/24 09:34:47;;;;;;;9.13;2.70;;;18.00;1.00;;;;;;5012001;28;20249;-47
2022/10/24 09:37:42;;;;;;;6.90;3.60;;;18.00;1.00;;;;;;5014189;28;20445;-47
2022/10/24 09:40:13;;;;;;;7.50;2.53;;;17.90;1.00;;;;;;5004888;28;20460;-47
2022/10/24 09:42:39;;;;;;;6.07;2.60;;;17.80;1.00;;;;;;5016518;28;20443;-46
2022/10/24 09:45:28;;;;;;;12.50;3.20;;;17.80;1.00;;;;;;4997464;28;20499;-47
2022/10/24 09:48:18;;;;;;;8.17;2.70;;;17.90;1.00;;;;;;5006555;28;20446;-46
2022/10/24 09:50:45;;;;;;;6.27;2.60;;;17.90;1.00;;;;;;5011634;28;21297;-47
2022/10/24 09:53:34;;;;;;;7.60;2.60;;;18.00;1.00;;;;;;5012997;28;20442;-47
2022/10/24 09:56:09;;;;;;;10.07;2.20;;;18.10;1.00;;;;;;5012494;28;20532;-47
2022/10/24 09:58:35;;;;;;;17.07;2.50;;;18.20;1.00;;;;;;5012663;28;20426;-47
2022/10/24 10:01:02;;;;;;;9.30;2.73;;;18.10;1.00;;;;;;5012031;28;20768;-47
2022/10/24 10:03:28;;;;;;;5.33;2.40;;;18.30;1.00;;;;;;5012075;28;20187;-47
2022/10/24 10:06:03;;;;;;;6.87;2.77;;;18.50;1.00;;;;;;5010916;28;20827;-47
2022/10/24 10:08:34;;;;;;;7.83;2.70;;;18.60;1.00;;;;;;5012234;28;20259;-48
2022/10/24 10:11:02;;;;;;;9.17;3.37;;;18.80;1.00;;;;;;4993185;28;20937;-44
2022/10/24 10:13:30;;;;;;;7.20;2.40;;;19.00;1.00;;;;;;4993086;28;20400;-44
2022/10/24 10:16:01;;;;;;;9.07;2.60;;;19.40;1.00;;;;;;5027294;28;21260;-45
2022/10/24 10:18:38;;;;;;;7.77;2.47;;;19.60;1.00;;;;;;5012036;28;20960;-45
2022/10/24 10:21:12;;;;;;;7.57;3.23;;;20.00;1.00;;;;;;5001186;28;20791;-45
2022/10/24 10:23:38;;;;;;;20.77;2.97;;;20.30;1.00;;;;;;5012232;28;20413;-44
2022/10/24 10:26:14;;;;;;;9.03;2.70;;;20.80;1.00;;;;;;5011156;28;20822;-46
2022/10/24 10:28:52;;;;;;;7.67;2.47;;;21.70;1.00;;;;;;5011101;28;20191;-46
2022/10/24 10:31:21;;;;;;;11.40;2.43;;;23.10;1.00;;;;;;5012299;28;20415;-46
2022/10/24 10:34:13;;;;;;;5.97;1.90;;;23.50;1.00;;;;;;5011686;28;20537;-44
2022/10/24 10:37:08;;;;;;;7.43;1.90;;;23.70;1.00;;;;;;5014492;28;20465;-46
